Historique des stations

Station météo de Mainvilliers

Altitude de la station : 298 m







Données météorologiques pour le 06/10/2022
Date
Heure
Températures Humidité Point de rosée Vitesse
du vent
Direction Rafales Windchill Pression Pluviométrie
Cumul
Date
Heure
Températures Humidité Point de rosée Vitesse
du vent
Direction Rafales Windchill Pression Pluviométrie
Cumul
06/10/2022 09:199.3 °C92 %8.3 °C6 km/hSO11 km/h8.3 1032 hPa0.2 mm
06/10/2022 09:159.2 °C92 %7.8 °C5 km/hOSO16 km/h8.9 1032 hPa0.2 mm
06/10/2022 09:048.8 °C93 %7.8 °C6 km/hSO10 km/h7.8 1031 hPa0.2 mm
06/10/2022 09:008.8 °C93 %7.8 °C6 km/hOSO16 km/h7.8 1031 hPa0.2 mm
06/10/2022 08:498.4 °C93 %7.2 °C3 km/hSO6 km/h7.8 1031 hPa0.2 mm
06/10/2022 08:458.3 °C93 %7.2 °C5 km/hSO16 km/h7.8 1031 hPa0.2 mm
06/10/2022 08:337.7 °C93 %6.7 °C3 km/hOSO6 km/h7.2 1031 hPa0.2 mm
06/10/2022 08:307.7 °C93 %6.7 °C2 km/hOSO16 km/h7.8 1031 hPa0.2 mm
06/10/2022 08:187.6 °C92 %6.7 °C5 km/hSO6 km/h7.2 1031 hPa0.2 mm
06/10/2022 08:157.6 °C92 %6.7 °C-OSO16 km/h7.8 1031 hPa0.2 mm
06/10/2022 08:038.0 °C92 %6.7 °C3 km/hOSO6 km/h7.2 1031 hPa0.2 mm
06/10/2022 08:008.2 °C92 %7.2 °C3 km/hOSO16 km/h7.8 1031 hPa0.2 mm
06/10/2022 07:488.2 °C93 %7.2 °C5 km/hSO8 km/h7.8 1031 hPa-
06/10/2022 07:458.1 °C93 %7.2 °C5 km/hSO16 km/h7.8 1031 hPa-
06/10/2022 07:337.9 °C92 %6.7 °C3 km/hSO8 km/h7.2 1030 hPa-
06/10/2022 07:297.9 °C92 %6.7 °C2 km/hSO16 km/h7.8 1030 hPa-
06/10/2022 07:187.9 °C92 %6.7 °C2 km/hSO6 km/h7.8 1030 hPa-
06/10/2022 07:147.9 °C92 %6.7 °C2 km/hSO16 km/h7.8 1030 hPa-
06/10/2022 07:037.8 °C92 %6.7 °C5 km/hSO8 km/h7.2 1030 hPa-
06/10/2022 07:007.8 °C92 %6.7 °C5 km/hSO16 km/h7.2 1030 hPa-
06/10/2022 06:487.9 °C92 %6.7 °C5 km/hOSO6 km/h7.2 1030 hPa-
06/10/2022 06:457.9 °C91 %6.7 °C6 km/hOSO16 km/h6.7 1030 hPa-
06/10/2022 06:337.9 °C91 %6.7 °C3 km/hOSO5 km/h7.2 1030 hPa-
06/10/2022 06:308.0 °C91 %6.7 °C2 km/hOSO16 km/h7.8 1030 hPa-
06/10/2022 06:198.3 °C91 %7.2 °C-OSO3 km/h8.3 1030 hPa-
06/10/2022 06:148.4 °C91 %7.2 °C-OSO16 km/h8.3 1030 hPa-
06/10/2022 06:048.6 °C91 %7.2 °C3 km/hOSO5 km/h7.8 1030 hPa-
06/10/2022 06:008.6 °C91 %7.2 °C3 km/hOSO16 km/h8.3 1030 hPa-
06/10/2022 05:498.7 °C91 %7.2 °C3 km/hOSO6 km/h8.3 1030 hPa-
06/10/2022 05:458.7 °C91 %7.2 °C3 km/hOSO16 km/h8.3 1030 hPa-
06/10/2022 05:348.6 °C91 %7.2 °C3 km/hOSO6 km/h7.8 1030 hPa-
06/10/2022 05:308.4 °C91 %7.2 °C2 km/hOSO16 km/h8.3 1030 hPa-
06/10/2022 05:198.6 °C91 %7.2 °C2 km/hOSO6 km/h8.3 1029 hPa-
06/10/2022 05:158.6 °C91 %7.2 °C2 km/hOSO16 km/h8.3 1029 hPa-
06/10/2022 05:048.7 °C91 %7.2 °C2 km/hOSO5 km/h8.9 1029 hPa-
06/10/2022 05:008.8 °C90 %7.2 °C2 km/hOSO16 km/h8.9 1029 hPa-
06/10/2022 04:498.9 °C90 %7.2 °C-OSO5 km/h8.9 1029 hPa-
06/10/2022 04:459.1 °C90 %7.8 °C-OSO16 km/h8.9 1029 hPa-
06/10/2022 04:349.2 °C90 %7.8 °C-OSO5 km/h9.4 1029 hPa-
06/10/2022 04:309.3 °C90 %7.8 °C-OSO16 km/h9.4 1029 hPa-
06/10/2022 04:199.5 °C89 %7.8 °C-OSO6 km/h9.4 1029 hPa-
06/10/2022 04:159.6 °C89 %7.8 °C2 km/hOSO16 km/h9.4 1029 hPa-
06/10/2022 04:049.8 °C89 %8.3 °C-OSO5 km/h10.0 1029 hPa-
06/10/2022 04:009.9 °C89 %8.3 °C3 km/hOSO16 km/h9.4 1029 hPa-
06/10/2022 03:4910.3 °C88 %8.3 °C3 km/hOSO6 km/h10.6 1029 hPa-
06/10/2022 03:4510.4 °C88 %8.3 °C5 km/hOSO16 km/h10.6 1029 hPa-
06/10/2022 03:3410.7 °C87 %8.9 °C5 km/hOSO5 km/h10.6 1029 hPa-
06/10/2022 03:3010.8 °C87 %8.9 °C3 km/hOSO16 km/h10.6 1029 hPa-
06/10/2022 03:1911.1 °C87 %8.9 °C3 km/hOSO11 km/h11.1 1029 hPa-
06/10/2022 03:1511.2 °C86 %8.9 °C2 km/hOSO16 km/h11.1 1029 hPa-
06/10/2022 03:0411.4 °C86 %9.4 °C5 km/hOSO11 km/h11.7 1029 hPa-
06/10/2022 03:0011.5 °C86 %9.4 °C3 km/hOSO16 km/h11.7 1028 hPa-
06/10/2022 02:4911.7 °C86 %9.4 °C3 km/hOSO11 km/h11.7 1028 hPa-
06/10/2022 02:4511.7 °C86 %9.4 °C5 km/hOSO16 km/h11.7 1028 hPa-
06/10/2022 02:3411.7 °C87 %9.4 °C3 km/hOSO8 km/h11.7 1028 hPa-
06/10/2022 02:3011.7 °C86 %9.4 °C6 km/hOSO16 km/h11.7 1028 hPa-
06/10/2022 02:1911.7 °C86 %9.4 °C3 km/hO10 km/h11.7 1028 hPa-
06/10/2022 02:1511.8 °C85 %9.4 °C5 km/hO16 km/h11.7 1028 hPa-
06/10/2022 02:0412.1 °C85 %9.4 °C3 km/hO6 km/h12.2 1028 hPa-
06/10/2022 02:0012.2 °C85 %10.0 °C-O16 km/h12.2 1028 hPa-
06/10/2022 01:4912.4 °C85 %10.0 °C3 km/hO10 km/h12.2 1028 hPa-
06/10/2022 01:4512.4 °C85 %10.0 °C3 km/hO16 km/h12.2 1028 hPa-
06/10/2022 01:3312.7 °C85 %10.6 °C2 km/hO10 km/h12.8 1028 hPa-
06/10/2022 01:2912.8 °C86 %10.6 °C-OSO16 km/h12.8 1028 hPa-
06/10/2022 01:1813.0 °C86 %10.6 °C2 km/hO13 km/h12.8 1028 hPa-
06/10/2022 01:1413.2 °C86 %11.1 °C-ONO16 km/h13.3 1028 hPa-
06/10/2022 01:0313.5 °C88 %11.7 °C-O11 km/h13.3 1027 hPa-
06/10/2022 01:0013.6 °C88 %11.7 °C-O16 km/h13.3 1027 hPa-
06/10/2022 00:4913.8 °C87 %11.7 °C2 km/hO13 km/h13.9 1027 hPa-
06/10/2022 00:4413.9 °C88 %12.2 °C-ONO16 km/h13.9 1027 hPa-
06/10/2022 00:3414.1 °C87 %12.2 °C3 km/hO6 km/h13.9 1027 hPa-
06/10/2022 00:3014.1 °C87 %12.2 °C5 km/hO16 km/h13.9 1027 hPa-
06/10/2022 00:1914.1 °C87 %12.2 °C2 km/hOSO16 km/h13.9 1027 hPa-
06/10/2022 00:1514.1 °C87 %12.2 °C8 km/hOSO16 km/h13.3 1027 hPa-
06/10/2022 00:0514.2 °C87 %12.2 °C3 km/hO11 km/h14.4 1027 hPa-
06/10/2022 00:0014.2 °C87 %12.2 °C3 km/hOSO8 km/h14.4 1026 hPa-


Minima :

Température : 7.6 °C
Humidité : 85 %
Point de rosée : 6.7 °C
Vent moyen : 2 km/h
Windchill : 6.7
Pression atm. : 1026 hPa
Maxima :

Température : 14.2 °C
Humidité : 93 %
Point de rosée : 12.2 °C
Vent moyen : 8 km/h
Windchill : 14.4
Pression atm. : 1032 hPa
Rafales max : 16 km/h
Cumul de pluie sur 24H : 0.2 mm

Mainvilliers est une commune du département Eure-et-Loir (28).
La station météorologique du réseau de l'association la plus proche de Mainvilliers est celle de Chaudon
Site du propriétaire de la station : http://meteo28300.fr/



Icône Facebook Association Météo Centre Icône Twitter Association Météo Centre Icône Chaîne Youtube Association Météo Centre Icône contact Association Météo Centre Icône Insta Association Météo Centre